Time;durP1;ratioP1;P1;durP2;ratioP2;P2;SDS_P1;SDS_P2;PMS_P1;PMS_P2;Temp;Humidity;BMP_temperature;BMP_pressure;BME280_temperature;BME280_humidity;BME280_pressure;Samples;Min_cycle;Max_cycle;Signal;HPM_P1;HPM_P2
2022/06/28 00:03:56;;;;;;;4.20;3.40;;;;;;;21.49;50.55;99538.95;431664;1271;142300;-59
2022/06/28 00:14:02;;;;;;;3.70;3.00;;;;;;;21.38;50.78;99534.77;430549;1271;141022;-61
2022/06/28 00:24:08;;;;;;;4.40;3.10;;;;;;;21.28;51.10;99536.63;431046;1272;142000;-60
2022/06/28 00:34:14;;;;;;;3.50;3.20;;;;;;;21.13;51.55;99528.85;431039;1271;142786;-59
2022/06/28 00:44:23;;;;;;;3.90;3.60;;;;;;;21.01;52.03;99534.36;430710;1271;141804;-57
2022/06/28 00:54:29;;;;;;;4.40;4.00;;;;;;;20.94;52.29;99527.00;430862;1270;140747;-60
2022/06/28 01:04:36;;;;;;;5.40;3.90;;;;;;;20.90;52.43;99520.43;431579;1270;143443;-59
2022/06/28 01:14:42;;;;;;;3.80;3.50;;;;;;;20.91;52.66;99519.79;430421;1270;143827;-61
2022/06/28 01:24:48;;;;;;;3.60;3.10;;;;;;;20.93;52.71;99516.59;431487;1270;141643;-60
2022/06/28 01:34:55;;;;;;;4.10;3.50;;;;;;;20.87;52.99;99515.99;431962;1271;141272;-59
2022/06/28 01:45:01;;;;;;;5.30;3.50;;;;;;;20.76;53.16;99521.16;431830;1270;141199;-61
2022/06/28 01:55:09;;;;;;;7.00;3.60;;;;;;;20.67;53.41;99534.13;431084;1270;141930;-60
2022/06/28 02:05:15;;;;;;;4.70;4.30;;;;;;;20.57;53.75;99531.74;430710;1269;143417;-60
2022/06/28 02:15:21;;;;;;;4.20;3.80;;;;;;;20.49;54.04;99523.17;431460;1270;144819;-59
2022/06/28 02:25:28;;;;;;;4.20;3.80;;;;;;;20.45;54.32;99512.44;431407;1270;143088;-59
2022/06/28 02:45:58;;;;;;;7.30;4.40;;;;;;;20.53;54.73;99529.21;431647;1269;141348;-60
2022/06/28 02:56:09;;;;;;;4.10;3.70;;;;;;;20.91;54.51;99528.15;429930;1270;183544;-59
2022/06/28 03:06:15;;;;;;;5.40;4.10;;;;;;;21.60;53.60;99536.52;431922;1269;145813;-59
2022/06/28 03:16:21;;;;;;;4.30;3.90;;;;;;;22.86;52.40;99537.61;430931;1271;141897;-59
2022/06/28 03:26:27;;;;;;;7.60;4.70;;;;;;;23.95;49.92;99543.61;432099;1269;142413;-60
2022/06/28 03:36:33;;;;;;;5.00;3.80;;;;;;;24.69;48.57;99543.36;431508;1270;144646;-61
2022/06/28 03:46:39;;;;;;;4.10;3.40;;;;;;;24.24;48.06;99541.89;431071;1270;141383;-60
2022/06/28 03:56:44;;;;;;;5.00;4.00;;;;;;;23.63;48.89;99532.36;430301;1270;144875;-60
2022/06/28 04:06:50;;;;;;;4.20;3.90;;;;;;;24.07;48.96;99523.84;432009;1268;141376;-60
2022/06/28 04:16:56;;;;;;;6.10;4.50;;;;;;;24.65;48.25;99528.40;432502;1270;140767;-59
2022/06/28 04:27:04;;;;;;;5.80;4.20;;;;;;;28.66;44.42;99522.52;434126;1270;141221;-60
2022/06/28 04:37:10;;;;;;;6.60;3.90;;;;;;;31.53;39.46;99505.71;440434;1270;181020;-61
2022/06/28 04:47:17;;;;;;;17.90;4.00;;;;;;;31.20;37.52;99507.07;436567;1270;141749;-61
2022/06/28 04:57:23;;;;;;;8.20;4.60;;;;;;;27.36;41.72;99479.71;447565;1270;140770;-61
2022/06/28 05:07:29;;;;;;;9.80;5.30;;;;;;;25.39;46.71;99486.95;447722;1269;141131;-61
2022/06/28 05:17:35;;;;;;;8.10;4.40;;;;;;;24.21;49.67;99494.10;447012;1269;141497;-60
2022/06/28 05:27:41;;;;;;;8.90;6.00;;;;;;;23.26;51.96;99515.99;431187;1270;144630;-60
2022/06/28 05:37:47;;;;;;;7.20;6.00;;;;;;;22.74;53.45;99525.26;445654;1269;142248;-60
2022/06/28 05:47:52;;;;;;;7.10;5.50;;;;;;;22.72;54.59;99529.45;446921;1270;141799;-63
2022/06/28 05:57:58;;;;;;;8.00;4.70;;;;;;;26.14;52.35;99541.27;439587;1270;141075;-60
2022/06/28 06:08:04;;;;;;;5.60;4.50;;;;;;;28.34;47.18;99557.86;447118;1270;144168;-60
2022/06/28 06:18:10;;;;;;;5.00;4.50;;;;;;;32.73;44.00;99562.16;447800;1269;141204;-61
2022/06/28 06:28:16;;;;;;;4.70;3.70;;;;;;;41.22;34.70;99545.17;447829;1269;144311;-61
2022/06/28 06:38:22;;;;;;;5.00;3.90;;;;;;;44.34;27.98;99544.43;446510;1269;141546;-61
2022/06/28 06:48:28;;;;;;;10.00;4.00;;;;;;;45.86;24.97;99546.27;438674;1269;147076;-59
2022/06/28 06:58:34;;;;;;;4.70;4.40;;;;;;;47.21;22.23;99554.49;440594;1269;142807;-62
2022/06/28 07:08:41;;;;;;;8.30;5.70;;;;;;;42.00;23.55;99552.70;443893;1269;141046;-58
2022/06/28 07:18:47;;;;;;;18.20;7.60;;;;;;;36.71;27.32;99553.05;435589;1270;140940;-60
2022/06/28 07:28:53;;;;;;;6.10;5.50;;;;;;;39.63;27.45;99545.25;437632;1270;141366;-60
2022/06/28 07:38:59;;;;;;;8.20;6.30;;;;;;;45.50;22.83;99548.27;431618;1270;140404;-59
2022/06/28 07:49:05;;;;;;;10.00;4.80;;;;;;;49.36;19.99;99553.91;439218;1272;141970;-60
2022/06/28 07:59:11;;;;;;;6.00;4.70;;;;;;;50.20;18.24;99557.20;441038;1269;142436;-61
2022/06/28 08:09:16;;;;;;;6.30;5.80;;;;;;;44.81;20.60;99556.61;431449;1270;142994;-61
2022/06/28 08:19:22;;;;;;;7.00;6.40;;;;;;;42.36;22.60;99562.81;445043;1270;141235;-60
2022/06/28 08:29:30;;;;;;;8.00;6.30;;;;;;;41.07;24.15;99564.98;439620;1270;141873;-62
2022/06/28 08:39:36;;;;;;;7.60;7.00;;;;;;;39.86;24.90;99555.86;446529;1269;141750;-61
2022/06/28 08:49:54;;;;;;;7.30;5.90;;;;;;;37.99;26.65;99555.18;438428;1270;140956;-60
2022/06/28 09:00:04;;;;;;;10.50;7.30;;;;;;;37.53;27.89;99562.74;441352;1270;141573;-59
2022/06/28 09:10:11;;;;;;;21.10;7.30;;;;;;;38.08;27.73;99566.46;435910;1270;141554;-61
2022/06/28 09:20:39;;;;;;;6.20;5.60;;;;;;;37.59;27.42;99570.53;438382;1270;140800;-63
2022/06/28 09:30:45;;;;;;;7.10;6.10;;;;;;;36.28;28.88;99577.89;432782;1270;145869;-57
2022/06/28 09:40:52;;;;;;;7.70;6.20;;;;;;;35.61;30.14;99583.13;432919;1270;141831;-59
2022/06/28 09:51:00;;;;;;;7.10;5.60;;;;;;;35.31;30.54;99591.36;442671;1270;142604;-61
2022/06/28 10:01:07;;;;;;;7.70;5.80;;;;;;;34.73;31.46;99594.77;447604;1270;254253;-61
2022/06/28 10:11:14;;;;;;;10.80;6.60;;;;;;;34.61;32.35;99584.83;446895;1269;142723;-60
2022/06/28 10:21:48;;;;;;;8.00;7.20;;;;;;;34.57;32.68;99588.67;447853;1269;141635;-62
2022/06/28 10:31:54;;;;;;;8.80;8.00;;;;;;;34.52;33.62;99585.96;447875;1269;141092;-60
2022/06/28 10:42:12;;;;;;;8.00;7.30;;;;;;;34.20;34.37;99587.27;442827;1270;141624;-61
2022/06/28 10:52:20;;;;;;;9.00;8.10;;;;;;;33.88;35.05;99590.90;447609;1270;141698;-61
2022/06/28 11:02:45;;;;;;;16.50;13.70;;;;;;;33.42;35.83;99592.99;435668;1270;142456;-60
2022/06/28 11:12:52;;;;;;;14.60;13.30;;;;;;;32.65;37.58;99590.99;432415;1270;141336;-59
2022/06/28 11:22:58;;;;;;;13.90;12.70;;;;;;;32.35;38.54;99597.95;432723;1271;141202;-60
2022/06/28 11:33:08;;;;;;;14.40;13.00;;;;;;;32.27;38.79;99603.42;432188;1270;141886;-60
2022/06/28 11:43:15;;;;;;;14.30;13.00;;;;;;;31.93;39.55;99617.10;432076;1270;141046;-57
2022/06/28 11:53:22;;;;;;;13.30;12.20;;;;;;;32.15;39.59;99624.86;432124;1271;140993;-60
2022/06/28 12:03:28;;;;;;;13.20;11.90;;;;;;;32.08;39.50;99625.31;431486;1270;147716;-60
2022/06/28 12:13:34;;;;;;;11.00;10.00;;;;;;;31.38;40.84;99632.97;432408;1270;141910;-60
2022/06/28 12:23:51;;;;;;;11.80;9.10;;;;;;;31.12;41.07;99642.23;430625;1270;142381;-61
2022/06/28 12:33:57;;;;;;;7.60;6.90;;;;;;;30.40;41.75;99657.02;433011;1270;141497;-60
2022/06/28 12:44:03;;;;;;;9.60;5.80;;;;;;;29.62;41.96;99657.84;431419;1270;154343;-60
2022/06/28 12:54:09;;;;;;;15.00;8.30;;;;;;;29.11;43.30;99665.47;431844;1271;144607;-57
2022/06/28 13:04:16;;;;;;;10.20;7.10;;;;;;;29.31;44.56;99705.86;431737;1269;140237;-60
2022/06/28 13:14:22;;;;;;;8.30;7.50;;;;;;;28.53;45.92;99721.68;431604;1270;142036;-58
2022/06/28 13:24:28;;;;;;;8.50;7.80;;;;;;;29.06;45.70;99707.73;431838;1271;141052;-61
2022/06/28 13:34:34;;;;;;;7.20;6.60;;;;;;;29.05;45.74;99722.63;431458;1270;140154;-61
2022/06/28 13:44:40;;;;;;;8.50;7.50;;;;;;;28.71;45.97;99720.16;430303;1271;141317;-62
2022/06/28 13:54:52;;;;;;;7.70;6.80;;;;;;;27.73;48.23;99708.15;431572;1271;140064;-60
2022/06/28 14:04:58;;;;;;;7.90;7.10;;;;;;;27.38;50.02;99719.15;432465;1271;142132;-61
2022/06/28 14:15:05;;;;;;;7.80;7.20;;;;;;;27.72;49.17;99728.98;432688;1271;141829;-60
2022/06/28 14:25:12;;;;;;;8.20;7.40;;;;;;;27.32;49.72;99736.70;433094;1271;192135;-60
2022/06/28 14:35:19;;;;;;;8.30;6.30;;;;;;;27.20;50.16;99736.76;442025;1270;141611;-60
2022/06/28 14:45:45;;;;;;;6.80;6.20;;;;;;;26.94;50.50;99775.61;430272;1271;140817;-62
2022/06/28 14:56:01;;;;;;;5.80;5.30;;;;;;;26.57;50.79;99787.14;431197;1270;141214;-57
2022/06/28 15:06:08;;;;;;;5.80;5.20;;;;;;;26.03;51.73;99782.30;432768;1270;208272;-58
2022/06/28 15:16:14;;;;;;;7.90;6.00;;;;;;;25.80;51.96;99796.85;432037;1269;141781;-60
2022/06/28 15:36:55;;;;;;;4.80;3.70;;;;;;;26.21;50.32;99785.46;431553;1270;141946;-60
2022/06/28 15:47:02;;;;;;;3.70;2.80;;;;;;;26.46;49.51;99802.20;431770;1271;140410;-61
2022/06/28 15:57:09;;;;;;;3.80;3.20;;;;;;;26.52;48.85;99810.27;432439;1270;141870;-60
2022/06/28 16:07:15;;;;;;;4.50;3.70;;;;;;;26.55;48.62;99815.98;432952;1270;144021;-59
2022/06/28 16:17:20;;;;;;;4.20;3.20;;;;;;;26.43;48.96;99802.05;436070;1270;142691;-61
2022/06/28 16:27:26;;;;;;;6.80;4.70;;;;;;;26.16;48.87;99788.27;431966;1270;141274;-60
2022/06/28 16:37:32;;;;;;;5.60;4.10;;;;;;;26.23;48.84;99782.59;432203;1270;142023;-60
2022/06/28 16:47:39;;;;;;;6.70;3.90;;;;;;;25.97;48.96;99789.17;429909;1270;141820;-62
2022/06/28 16:57:45;;;;;;;5.40;4.40;;;;;;;25.54;50.13;99790.64;431441;1270;141086;-60
2022/06/28 17:07:50;;;;;;;5.20;4.50;;;;;;;25.34;50.82;99775.96;431354;1270;141819;-57
2022/06/28 17:17:56;;;;;;;5.20;4.70;;;;;;;25.08;51.61;99767.03;430555;1270;146312;-59
2022/06/28 17:28:02;;;;;;;7.10;5.40;;;;;;;25.20;51.87;99753.16;430736;1270;143630;-59
2022/06/28 17:38:08;;;;;;;5.50;3.80;;;;;;;24.85;52.05;99744.58;430204;1270;142546;-59
2022/06/28 17:48:14;;;;;;;4.00;3.70;;;;;;;24.55;53.10;99738.30;430839;1270;145181;-59
2022/06/28 17:58:20;;;;;;;3.10;2.90;;;;;;;24.42;53.79;99741.99;431890;1270;141309;-59
2022/06/28 18:08:26;;;;;;;6.90;3.70;;;;;;;24.33;53.59;99738.79;430108;1269;141213;-59
2022/06/28 18:18:32;;;;;;;6.80;4.30;;;;;;;23.63;54.77;99730.10;431162;1270;140658;-61
2022/06/28 18:28:38;;;;;;;15.00;5.30;;;;;;;23.21;56.28;99723.59;432508;1270;144556;-60
2022/06/28 18:38:44;;;;;;;7.50;6.70;;;;;;;22.84;57.56;99720.27;430645;1270;141804;-59
2022/06/28 18:48:50;;;;;;;9.10;8.20;;;;;;;22.46;59.49;99700.94;430716;1270;141557;-59
2022/06/28 18:58:56;;;;;;;10.20;9.20;;;;;;;22.02;61.18;99700.83;432620;1270;141805;-60
2022/06/28 19:09:03;;;;;;;11.70;10.50;;;;;;;21.72;62.97;99704.44;432245;1270;147350;-59
2022/06/28 19:19:09;;;;;;;13.20;12.00;;;;;;;21.49;63.99;99722.36;431436;1270;142559;-59
2022/06/28 19:29:16;;;;;;;13.00;11.80;;;;;;;21.31;65.18;99727.31;431547;1270;143230;-59
2022/06/28 19:39:22;;;;;;;13.20;11.90;;;;;;;21.12;66.53;99740.58;431077;1270;142539;-60
2022/06/28 19:49:28;;;;;;;13.40;12.10;;;;;;;20.96;67.54;99756.31;431123;1269;142115;-59
2022/06/28 19:59:34;;;;;;;11.90;10.70;;;;;;;20.93;68.01;99770.48;430189;1270;142161;-60
2022/06/28 20:09:41;;;;;;;13.40;11.20;;;;;;;20.80;68.29;99779.40;430801;1270;142099;-60
2022/06/28 20:19:47;;;;;;;10.60;9.60;;;;;;;20.64;69.15;99789.25;431679;1270;184952;-59
2022/06/28 20:29:53;;;;;;;9.50;8.70;;;;;;;20.51;69.83;99796.41;432361;1268;142383;-59
2022/06/28 20:39:59;;;;;;;8.60;7.90;;;;;;;20.51;69.98;99799.67;430906;1270;141744;-60
2022/06/28 20:50:05;;;;;;;11.80;10.90;;;;;;;20.54;70.06;99817.83;436635;1269;144773;-60
2022/06/28 21:00:13;;;;;;;10.10;9.20;;;;;;;20.54;70.33;99821.94;430829;1270;148287;-60
2022/06/28 21:10:18;;;;;;;;;;;;;;;20.46;70.38;99815.59;440435;1270;142514;-60
2022/06/28 21:20:24;;;;;;;9.70;8.90;;;;;;;20.30;70.58;99822.52;436731;1270;129642;-60
2022/06/28 21:30:32;;;;;;;9.10;8.30;;;;;;;20.03;71.07;99830.61;432216;1269;186743;-60
2022/06/28 21:40:38;;;;;;;7.90;7.20;;;;;;;19.78;71.65;99828.58;430829;1270;142271;-60
2022/06/28 21:50:44;;;;;;;12.40;11.10;;;;;;;19.88;72.00;99821.34;429838;1270;142401;-60
2022/06/28 22:00:50;;;;;;;8.90;8.20;;;;;;;20.15;71.48;99845.75;430422;1270;356878;-61
2022/06/28 22:10:56;;;;;;;10.80;8.00;;;;;;;20.39;70.82;99874.30;432364;1270;143501;-59
2022/06/28 22:21:02;;;;;;;7.60;6.90;;;;;;;20.22;70.04;99883.92;431374;1270;141628;-60
2022/06/28 22:31:08;;;;;;;6.90;6.20;;;;;;;19.93;70.44;99894.84;431674;1270;142665;-60
2022/06/28 22:41:17;;;;;;;6.60;6.10;;;;;;;19.99;70.50;99915.92;430449;1271;142344;-60
2022/06/28 22:51:22;;;;;;;6.20;5.70;;;;;;;20.16;70.07;99921.94;431162;1270;142005;-60
2022/06/28 23:01:28;;;;;;;7.20;6.60;;;;;;;20.09;69.72;99902.66;430750;1270;142504;-61
2022/06/28 23:11:34;;;;;;;7.40;6.80;;;;;;;19.94;69.80;99899.73;430944;1270;142722;-60
2022/06/28 23:21:40;;;;;;;7.70;7.00;;;;;;;19.80;69.93;99880.61;430370;1271;144251;-60
2022/06/28 23:31:46;;;;;;;11.00;7.00;;;;;;;19.65;70.19;99856.83;430698;1270;147096;-59
2022/06/28 23:41:52;;;;;;;8.90;8.10;;;;;;;19.48;70.68;99849.85;430654;1271;143783;-59
2022/06/28 23:51:58;;;;;;;8.00;7.40;;;;;;;19.28;70.93;99841.60;430691;1270;142431;-59
